BIKFBGSF [SWR570]

Guest
Details From BIKF - Keflavik Nas
To BGSF - Kangerlussuaq
Flight Number SWR570
Tags Real Commercial Decoded
Created
Modified
Stats Distance 719 nm / 1,331 km
Max Altitude 3,317 ft / 1,011 m
Waypoints 3
Social Downloads 16
Likes 0
Share VATSIM

Download

Looking for another format? Having issues loading an existing format? Contact us
Advertisement - Login to hide

Notes

Decoded

Route

BIKF SUKAK BGSF

ID Type Via Altitude Latitude Longitude Leg Dist Tot Dist Heading (true) Name
O BIKF APT - 0 ft / 0 m 63.96448˚ -22.60545˚ - 0 nm - -
SUKAK FIX - 3,317 ft / 1,011 m 66.94250˚ -50.48917˚ 711 nm 711 nm 297° / 271° -
O BGSF APT - 0 ft / 0 m 67.00561˚ -50.74307˚ 7 nm 718 nm 303° / 302° -

Altitude Profile

Advertisement - Login to hide

Weather


0- 5 10 15 20 25 30 35+ Temperature / ° C

Clouds and Precipitation
Forecast for 2017-12-13 06:00 UTC. Updated 19 minutes ago

Ground ~20,000 ft ~40,000 ft Winds

BIKF

Details ICAO BIKF (KEF)
Name Keflavik
Region Iceland
Timezone Atlantic/Reykjavik (UTC+0.0)
Stats Elevation 170 ft / 52 m (AMSL)
Location 63.981612° -22.614563°
Runways 2
Magnetic Variation 14.068° W

METAR

BIKF 130530Z 09006KT 9999 FEW024 M00/M01 Q0974 R19/190070

Decode

TAF

TAF BIKF 130200Z 1303/1403 12010KT 9999 SCT030 TXM01/1400Z TNM03/1312Z BECMG 1315/1318 03015KT

Decode

Departure Runways

ID Width Length Bearing (true) Bearing (mag) Surface Threshold Offset Overrun Length
02 197 ft / 60 m 9,997 ft / 3,047 m 0.02° 14.09° Asphalt 0 ft / 0 m 492 ft / 150 m
11 197 ft / 60 m 10,022 ft / 3,055 m 89.97° 104.04° Asphalt 0 ft / 0 m 246 ft / 75 m
20 197 ft / 60 m 9,997 ft / 3,047 m 180.02° 194.09° Asphalt 0 ft / 0 m 98 ft / 30 m
29 197 ft / 60 m 10,022 ft / 3,055 m 270.02° 284.09° Asphalt 0 ft / 0 m 197 ft / 60 m

BGSF

Details ICAO BGSF (SFJ)
Name Kangerlussuaq
Region Greenland
Timezone America/Godthab (UTC-3.0)
Stats Elevation 165 ft / 50 m (AMSL)
Location 67.011605° -50.714721°
Runways 2
Magnetic Variation 29.037° W

METAR

BGSF 130450Z AUTO 29017KT 9999NDV -SN FEW028/// BKN070/// OVC085/// M04/M08 Q0998

Decode

TAF

TAF AMD TAF AMD BGSF 122035Z 1220/1301 06006KT 9999 BKN030 TEMPO 1220/1301 22005KT 1200 -SN BKN010

Decode

Destination Runways

ID Width Length Bearing (true) Bearing (mag) Surface Threshold Offset Overrun Length
09 197 ft / 60 m 9,169 ft / 2,795 m 61.57° 90.61° Asphalt 0 ft / 0 m 509 ft / 155 m
10 197 ft / 60 m 9,187 ft / 2,800 m 61.55° 90.59° Asphalt 0 ft / 0 m 0 ft / 0 m
27 197 ft / 60 m 9,169 ft / 2,795 m 241.63° 270.67° Asphalt 0 ft / 0 m 171 ft / 52 m
28 197 ft / 60 m 9,187 ft / 2,800 m 241.60° 270.64° Asphalt 0 ft / 0 m 0 ft / 0 m

Approach Navaids

Runway Type Ident Frequency Range Bearing (true) Bearing (mag) Slope Elevation
10 Localiser ISF 109.55 MHz 18 nm / 33 km 61.60° 90.64° - 165 ft / 50 m (AMSL)
10 DME ISF 109.55 MHz 18 nm / 33 km - - - 172 ft / 52 m (AMSL)

Popular Alternatives